Time;durP1;ratioP1;P1;durP2;ratioP2;P2;SDS_P1;SDS_P2;PMS_P1;PMS_P2;Temp;Humidity;BMP_temperature;BMP_pressure;BME280_temperature;BME280_humidity;BME280_pressure;Samples;Min_cycle;Max_cycle;Signal;HPM_P1;HPM_P2
2022/02/09 00:09:13;;;;;;;5.60;5.10;;;10.50;99.90;;;;;;5056113;28;20168;-84
2022/02/09 00:12:00;;;;;;;5.25;3.53;;;10.50;99.90;;;;;;5056634;28;20203;-78
2022/02/09 00:14:40;;;;;;;4.22;3.65;;;10.30;99.90;;;;;;5055996;28;20607;-78
2022/02/09 00:17:29;;;;;;;3.85;3.55;;;10.40;99.90;;;;;;5056936;28;20178;-77
2022/02/09 00:43:45;;;;;;;4.10;3.70;;;10.60;99.90;;;;;;5055635;28;20194;-78
2022/02/09 01:11:29;;;;;;;3.97;3.38;;;10.70;99.90;;;;;;5055832;28;20193;-78
2022/02/09 01:41:43;;;;;;;7.05;3.10;;;10.40;99.90;;;;;;5055254;28;20200;-82
2022/02/09 01:57:15;;;;;;;5.40;2.90;;;10.60;99.90;;;;;;5054739;28;20197;-78
2022/02/09 01:59:43;;;;;;;2.88;2.63;;;10.70;99.90;;;;;;5054189;28;20173;-79
2022/02/09 02:02:09;;;;;;;3.42;3.13;;;10.70;99.90;;;;;;5054360;28;20229;-78
2022/02/09 02:04:35;;;;;;;2.80;2.60;;;10.80;99.90;;;;;;5054446;28;20175;-78
2022/02/09 02:07:06;;;;;;;2.50;2.30;;;10.90;99.90;;;;;;5054487;28;20217;-81
2022/02/09 02:09:35;;;;;;;3.92;3.05;;;10.90;99.90;;;;;;5054963;28;20177;-78
2022/02/09 02:12:12;;;;;;;3.13;2.50;;;10.90;99.90;;;;;;5054436;28;20213;-79
2022/02/09 02:15:12;;;;;;;4.63;2.08;;;10.90;99.90;;;;;;5036213;28;20580;-87
2022/02/09 02:17:44;;;;;;;3.05;1.70;;;10.80;99.90;;;;;;5054233;28;20190;-78
2022/02/09 02:20:26;;;;;;;2.20;1.70;;;10.80;99.90;;;;;;5054381;28;20210;-77
2022/02/09 02:25:55;;;;;;;2.83;1.73;;;10.50;99.90;;;;;;5057982;28;20187;-88
2022/02/09 02:28:39;;;;;;;7.50;2.28;;;10.50;99.90;;;;;;5054422;28;20175;-77
2022/02/09 02:31:39;;;;;;;2.08;1.80;;;10.50;99.90;;;;;;5054198;28;20221;-77
2022/02/09 02:36:37;;;;;;;2.28;1.88;;;10.60;99.90;;;;;;5054520;28;20423;-84
2022/02/09 03:12:13;;;;;;;4.28;3.88;;;10.50;99.90;;;;;;5059168;28;20235;-78
2022/02/09 03:17:19;;;;;;;5.03;4.57;;;10.80;99.90;;;;;;5053815;28;20636;-78
2022/02/09 03:19:51;;;;;;;4.80;4.40;;;10.80;99.90;;;;;;5053278;28;20270;-77
2022/02/09 03:22:24;;;;;;;7.00;4.40;;;10.90;99.90;;;;;;5035473;28;20552;-77
2022/02/09 03:27:42;;;;;;;5.82;4.32;;;10.40;99.90;;;;;;5053369;28;20211;-79
2022/02/09 03:46:48;;;;;;;3.92;3.63;;;10.50;99.90;;;;;;5052628;28;20182;-78
2022/02/09 03:52:05;;;;;;;4.95;4.45;;;10.20;99.90;;;;;;5052828;28;20209;-78
2022/02/09 03:54:41;;;;;;;12.35;4.63;;;10.10;99.90;;;;;;5052638;28;20628;-79
2022/02/09 03:57:22;;;;;;;5.28;4.78;;;10.30;99.90;;;;;;5052684;28;20661;-91
2022/02/09 03:59:48;;;;;;;6.63;4.90;;;10.40;99.90;;;;;;5054116;28;20201;-78
2022/02/09 04:02:14;;;;;;;4.95;4.30;;;10.50;99.90;;;;;;5059099;28;20221;-77
2022/02/09 04:04:39;;;;;;;7.82;4.68;;;10.60;99.90;;;;;;5077734;28;20152;-79
2022/02/09 04:07:07;;;;;;;5.38;4.88;;;10.50;99.90;;;;;;5057992;28;20187;-77
2022/02/09 04:09:34;;;;;;;5.50;4.88;;;10.40;99.90;;;;;;5052355;28;20159;-77
2022/02/09 04:14:46;;;;;;;5.88;4.82;;;10.40;99.90;;;;;;5052337;28;20244;-77
2022/02/09 04:17:23;;;;;;;5.95;4.75;;;10.30;99.90;;;;;;5052208;28;20274;-77
2022/02/09 04:39:07;;;;;;;5.28;4.78;;;10.40;99.90;;;;;;5022362;28;20210;-81
2022/02/09 04:41:55;;;;;;;7.35;6.20;;;10.40;99.90;;;;;;5052856;28;20167;-82
2022/02/09 04:44:42;;;;;;;6.38;5.85;;;10.30;99.90;;;;;;5053116;28;20183;-88
2022/02/09 04:49:52;;;;;;;6.90;5.38;;;10.10;99.90;;;;;;5052718;28;20171;-78
2022/02/09 04:57:54;;;;;;;6.50;5.82;;;10.30;99.90;;;;;;5055999;28;20237;-78
2022/02/09 05:25:28;;;;;;;9.50;7.05;;;10.50;99.90;;;;;;5055593;28;20628;-77
2022/02/09 05:28:04;;;;;;;7.88;5.45;;;10.40;99.90;;;;;;5055435;28;20220;-77
2022/02/09 05:30:30;;;;;;;7.10;6.38;;;10.40;99.90;;;;;;5055395;28;20517;-78
2022/02/09 05:32:56;;;;;;;9.15;6.43;;;10.40;99.90;;;;;;5055167;28;20175;-78
2022/02/09 05:35:22;;;;;;;6.63;5.68;;;10.30;99.90;;;;;;5054699;28;20272;-78
2022/02/09 05:37:52;;;;;;;7.03;6.43;;;10.40;99.90;;;;;;5055157;28;20732;-78
2022/02/09 05:40:18;;;;;;;6.60;5.82;;;10.30;99.90;;;;;;5055216;28;20179;-78
2022/02/09 05:42:44;;;;;;;9.50;6.55;;;10.30;99.90;;;;;;5055746;28;20214;-78
2022/02/09 05:45:11;;;;;;;8.18;6.63;;;10.30;99.90;;;;;;5054846;28;20172;-77
2022/02/09 05:53:39;;;;;;;7.13;6.43;;;10.40;99.90;;;;;;5055048;28;20724;-78
2022/02/09 05:58:11;;;;;;;7.00;6.30;;;10.40;99.90;;;;;;5054989;28;20175;-78
2022/02/09 06:00:40;;;;;;;6.22;5.63;;;10.30;99.90;;;;;;5054743;28;20163;-78
2022/02/09 06:03:05;;;;;;;7.60;6.28;;;10.20;99.90;;;;;;5054582;28;20187;-85
2022/02/09 06:05:31;;;;;;;7.32;5.55;;;10.20;99.90;;;;;;5054060;28;20160;-77
2022/02/09 06:07:57;;;;;;;7.18;6.10;;;10.00;99.90;;;;;;5054399;28;20167;-78
2022/02/09 06:10:28;;;;;;;5.00;4.57;;;10.10;99.90;;;;;;5054591;28;20171;-87
2022/02/09 06:13:09;;;;;;;6.22;5.63;;;10.10;99.90;;;;;;5036957;28;20201;-78
2022/02/09 06:21:12;;;;;;;8.40;5.15;;;10.30;99.90;;;;;;4992809;28;20268;-78
2022/02/09 06:23:38;;;;;;;5.00;4.53;;;10.30;99.90;;;;;;4992457;28;20197;-79
2022/02/09 06:26:05;;;;;;;5.50;4.97;;;10.20;99.90;;;;;;5021455;28;20678;-78
2022/02/09 06:28:30;;;;;;;4.65;4.00;;;10.30;99.90;;;;;;5035995;28;20576;-77
2022/02/09 06:30:57;;;;;;;4.95;4.55;;;10.40;99.90;;;;;;5054751;28;20250;-78
2022/02/09 06:33:23;;;;;;;10.55;5.00;;;10.40;99.90;;;;;;5037389;28;20198;-77
2022/02/09 06:35:49;;;;;;;4.50;4.10;;;10.40;99.90;;;;;;5055050;28;20199;-78
2022/02/09 06:38:16;;;;;;;4.68;4.28;;;10.30;99.90;;;;;;5055214;28;20163;-78
2022/02/09 06:40:45;;;;;;;4.38;3.92;;;10.30;99.90;;;;;;5040698;28;20186;-77
2022/02/09 06:43:11;;;;;;;4.60;4.20;;;10.30;99.90;;;;;;5037099;28;20189;-78
2022/02/09 06:45:42;;;;;;;5.70;3.65;;;10.30;99.90;;;;;;5055069;28;20185;-78
2022/02/09 06:48:17;;;;;;;5.07;4.57;;;10.20;99.90;;;;;;5055648;28;20166;-78
2022/02/09 06:50:51;;;;;;;5.90;4.63;;;10.30;99.90;;;;;;5054973;28;20169;-78
2022/02/09 06:56:00;;;;;;;5.07;4.28;;;10.30;99.90;;;;;;5054440;28;20214;-78
2022/02/09 07:01:00;;;;;;;5.93;4.00;;;10.40;99.90;;;;;;5055570;28;20279;-77
2022/02/09 07:03:25;;;;;;;5.43;4.38;;;10.40;99.90;;;;;;5038378;28;20297;-77
2022/02/09 07:05:51;;;;;;;5.53;4.45;;;10.30;99.90;;;;;;5053806;28;20628;-79
2022/02/09 07:08:18;;;;;;;7.05;5.35;;;10.30;99.90;;;;;;5036762;28;20202;-78
2022/02/09 07:10:44;;;;;;;5.47;4.47;;;10.30;99.90;;;;;;5054398;28;20167;-77
2022/02/09 07:13:12;;;;;;;4.47;4.07;;;10.50;99.90;;;;;;5055142;28;20221;-79
2022/02/09 07:15:42;;;;;;;7.10;4.13;;;10.40;99.90;;;;;;5053532;28;20206;-78
2022/02/09 07:18:11;;;;;;;4.97;3.85;;;10.30;99.90;;;;;;5055998;28;20266;-77
2022/02/09 07:23:27;;;;;;;5.68;4.40;;;10.40;99.90;;;;;;5067521;28;20194;-77
2022/02/09 07:26:09;;;;;;;4.70;3.90;;;10.40;99.90;;;;;;5066614;28;20185;-77
2022/02/09 07:28:36;;;;;;;5.82;3.90;;;10.20;99.90;;;;;;5061221;28;20161;-77
2022/02/09 07:31:03;;;;;;;5.20;4.70;;;10.30;99.90;;;;;;5052741;28;20255;-77
2022/02/09 07:33:29;;;;;;;5.30;4.22;;;10.30;99.90;;;;;;5052784;28;20192;-81
2022/02/09 07:35:55;;;;;;;4.78;3.65;;;10.30;99.90;;;;;;5052332;28;20535;-87
2022/02/09 07:38:21;;;;;;;7.63;3.50;;;10.20;99.90;;;;;;5056191;28;20167;-78
2022/02/09 07:40:47;;;;;;;4.32;3.90;;;10.30;99.90;;;;;;5056664;28;20178;-78
2022/02/09 07:43:26;;;;;;;6.20;4.28;;;10.30;99.90;;;;;;5061968;28;20213;-78
2022/02/09 07:54:09;;;;;;;9.68;5.63;;;10.20;99.90;;;;;;5062119;28;20800;-76
2022/02/09 07:56:37;;;;;;;8.18;5.82;;;10.30;99.90;;;;;;5061738;28;20198;-76
2022/02/09 07:59:05;;;;;;;9.60;5.95;;;10.40;99.90;;;;;;5055672;28;20182;-76
2022/02/09 08:01:31;;;;;;;6.97;6.00;;;10.30;99.90;;;;;;5056036;28;20182;-77
2022/02/09 08:03:57;;;;;;;9.15;5.28;;;10.40;99.90;;;;;;5054695;28;20182;-78
2022/02/09 08:06:26;;;;;;;14.63;9.77;;;10.40;99.90;;;;;;5055832;28;20172;-78
2022/02/09 08:09:00;;;;;;;12.10;7.60;;;10.40;99.90;;;;;;5053203;28;20168;-76
2022/02/09 08:27:41;;;;;;;8.45;5.65;;;10.40;99.90;;;;;;5052593;28;20631;-77
2022/02/09 08:32:51;;;;;;;6.88;5.45;;;10.20;99.90;;;;;;5059291;28;20194;-78
2022/02/09 08:35:17;;;;;;;6.72;5.32;;;10.30;99.90;;;;;;5068878;28;20559;-79
2022/02/09 08:37:44;;;;;;;10.43;6.10;;;10.60;99.90;;;;;;5081345;28;20167;-79
2022/02/09 08:40:13;;;;;;;12.07;6.00;;;10.70;99.90;;;;;;5057477;28;20249;-77
2022/02/09 08:42:39;;;;;;;7.82;5.53;;;10.80;99.90;;;;;;5057107;28;20199;-80
2022/02/09 08:45:07;;;;;;;7.85;6.22;;;11.00;99.90;;;;;;5074886;28;20173;-82
2022/02/09 08:47:32;;;;;;;9.20;6.28;;;11.30;99.90;;;;;;5072662;28;20565;-86
2022/02/09 08:49:59;;;;;;;7.68;5.25;;;11.40;99.90;;;;;;5073480;28;20174;-79
2022/02/09 08:52:24;;;;;;;13.93;5.15;;;11.20;99.90;;;;;;5071345;28;20198;-82
2022/02/09 08:54:52;;;;;;;12.65;5.72;;;11.20;99.90;;;;;;5075804;28;20175;-78
2022/02/09 08:57:20;;;;;;;15.00;6.28;;;11.10;99.90;;;;;;5075283;28;20169;-77
2022/02/09 08:59:48;;;;;;;8.40;6.32;;;11.20;99.90;;;;;;5055869;28;20163;-78
2022/02/09 09:02:16;;;;;;;13.10;5.88;;;11.10;99.90;;;;;;5055734;28;20227;-79
2022/02/09 09:04:48;;;;;;;16.67;7.50;;;11.10;99.90;;;;;;5055590;28;20163;-78
2022/02/09 09:07:23;;;;;;;38.58;12.13;;;11.00;99.90;;;;;;5037706;28;20553;-81
2022/02/09 09:09:59;;;;;;;8.20;5.35;;;11.10;99.90;;;;;;5055556;28;20178;-86
2022/02/09 10:34:26;;;;;;;10.50;5.93;;;12.10;99.90;;;;;;5054629;28;20190;-83
2022/02/09 10:36:59;;;;;;;7.63;6.40;;;12.10;99.90;;;;;;5054650;28;20290;-78
2022/02/09 10:39:58;;;;;;;9.40;7.47;;;12.10;99.90;;;;;;5066046;28;20182;-80
2022/02/09 10:42:46;;;;;;;10.35;7.32;;;12.10;99.90;;;;;;5078598;28;20159;-81
2022/02/09 10:45:33;;;;;;;16.25;7.43;;;12.30;99.90;;;;;;5054483;28;20677;-77
2022/02/09 10:48:01;;;;;;;9.10;7.25;;;12.40;99.90;;;;;;5037127;28;20256;-78
2022/02/09 10:50:35;;;;;;;15.38;8.05;;;12.50;99.90;;;;;;5054543;28;20168;-80
2022/02/09 10:53:04;;;;;;;11.95;7.50;;;12.50;99.90;;;;;;5053813;28;20190;-81
2022/02/09 10:55:35;;;;;;;13.35;6.68;;;12.60;99.90;;;;;;5054403;28;20249;-92
2022/02/09 10:58:08;;;;;;;18.55;7.78;;;12.40;99.90;;;;;;5054372;28;20246;-77
2022/02/09 11:00:34;;;;;;;13.60;7.20;;;12.70;99.90;;;;;;5054100;28;20695;-93
2022/02/09 11:03:00;;;;;;;14.52;6.32;;;12.40;99.90;;;;;;5054098;28;20183;-76
2022/02/09 11:05:26;;;;;;;12.00;7.03;;;12.20;99.90;;;;;;5036424;28;20257;-89
2022/02/09 11:07:54;;;;;;;8.25;6.53;;;12.30;99.90;;;;;;5054377;28;20172;-92
2022/02/09 11:10:20;;;;;;;7.65;6.03;;;12.40;99.90;;;;;;5054132;28;20184;-86
2022/02/09 11:12:45;;;;;;;9.63;7.45;;;12.60;99.90;;;;;;5054545;28;20624;-88
2022/02/09 11:15:17;;;;;;;12.38;6.88;;;12.80;99.90;;;;;;5036544;28;20195;-80
2022/02/09 11:17:46;;;;;;;12.73;7.03;;;12.80;99.90;;;;;;5054299;28;20225;-87
2022/02/09 11:20:14;;;;;;;7.35;6.05;;;13.00;99.90;;;;;;5056656;28;20167;-89
2022/02/09 11:22:42;;;;;;;9.00;5.93;;;13.10;99.90;;;;;;5054334;28;20663;-78
2022/02/09 11:25:24;;;;;;;11.75;6.47;;;12.90;99.90;;;;;;5056062;28;20187;-85
2022/02/09 11:28:18;;;;;;;14.07;7.13;;;12.90;99.90;;;;;;5054220;28;20216;-79
2022/02/09 11:31:20;;;;;;;6.03;5.50;;;12.90;99.90;;;;;;5053455;28;20691;-77
2022/02/09 11:33:55;;;;;;;9.52;5.10;;;13.00;99.90;;;;;;5053934;28;20563;-81
2022/02/09 11:38:57;;;;;;;9.75;5.53;;;13.40;99.90;;;;;;5054110;28;20183;-88
2022/02/09 11:41:33;;;;;;;9.30;5.95;;;13.40;99.90;;;;;;5055145;28;20176;-78
2022/02/09 11:44:05;;;;;;;9.45;4.88;;;13.20;99.90;;;;;;5054343;28;20265;-88
2022/02/09 11:52:21;;;;;;;14.13;4.70;;;13.20;99.90;;;;;;5071610;28;20170;-81
2022/02/09 12:09:50;;;;;;;10.30;3.40;;;13.30;99.90;;;;;;4992115;28;20177;-79
2022/02/09 12:12:21;;;;;;;16.00;4.05;;;13.30;99.90;;;;;;4992533;28;20165;-77
2022/02/09 12:17:34;;;;;;;3.40;2.67;;;13.50;99.90;;;;;;5053625;28;20269;-83
2022/02/09 12:20:31;;;;;;;12.15;2.63;;;13.40;99.90;;;;;;5053872;28;20190;-87
2022/02/09 12:25:44;;;;;;;3.58;2.92;;;13.60;99.90;;;;;;5053230;28;20187;-83
2022/02/09 12:28:21;;;;;;;3.60;2.38;;;13.70;99.90;;;;;;5053578;28;20616;-82
2022/02/09 12:30:47;;;;;;;20.52;3.65;;;13.80;99.90;;;;;;5035832;28;20178;-89
2022/02/09 12:33:20;;;;;;;7.72;3.22;;;13.70;99.90;;;;;;5053330;28;20262;-89
2022/02/09 12:35:46;;;;;;;4.53;2.63;;;13.80;99.90;;;;;;5054024;28;20203;-78
2022/02/09 12:38:12;;;;;;;7.35;2.88;;;13.70;99.90;;;;;;5055351;28;20228;-79
2022/02/09 12:40:38;;;;;;;4.63;2.70;;;13.80;99.90;;;;;;5053211;28;20175;-93
2022/02/09 12:43:06;;;;;;;3.53;2.60;;;14.00;99.90;;;;;;5053724;28;20179;-92
2022/02/09 12:45:36;;;;;;;6.68;3.47;;;14.00;99.90;;;;;;5062150;28;20163;-79
2022/02/09 12:48:04;;;;;;;4.40;2.78;;;13.90;99.90;;;;;;5052723;28;20189;-78
2022/02/09 12:50:40;;;;;;;4.00;2.70;;;13.90;99.90;;;;;;5061851;28;20152;-78
2022/02/09 12:53:07;;;;;;;5.00;3.03;;;13.90;99.90;;;;;;5069359;28;20175;-78
2022/02/09 12:55:36;;;;;;;6.18;3.20;;;13.50;99.90;;;;;;5058111;28;20191;-78
2022/02/09 12:58:12;;;;;;;7.25;2.90;;;13.70;99.90;;;;;;5053130;28;20159;-78
2022/02/09 13:00:43;;;;;;;6.28;1.92;;;13.90;99.90;;;;;;5053656;28;20189;-78
2022/02/09 13:03:12;;;;;;;5.07;2.88;;;14.00;99.90;;;;;;5053352;28;20266;-78
2022/02/09 13:05:42;;;;;;;16.60;2.65;;;13.80;99.90;;;;;;5053141;28;20163;-78
2022/02/09 13:08:08;;;;;;;3.22;2.10;;;13.70;99.90;;;;;;5054022;28;20221;-79
2022/02/09 13:10:36;;;;;;;6.68;2.50;;;13.40;99.90;;;;;;5052850;28;20543;-93
2022/02/09 13:13:10;;;;;;;6.15;1.83;;;13.40;99.90;;;;;;5035015;28;20232;-78
2022/02/09 14:55:33;;;;;;;3.90;2.00;;;13.40;99.90;;;;;;5054978;28;20297;-87
2022/02/09 14:58:23;;;;;;;3.17;1.80;;;13.40;99.90;;;;;;5054850;28;20165;-80
2022/02/09 15:08:30;;;;;;;3.88;2.47;;;13.50;99.90;;;;;;5067387;28;20171;-82
2022/02/09 15:11:11;;;;;;;3.90;3.00;;;13.40;99.90;;;;;;5077251;28;20163;-80
2022/02/09 15:16:17;;;;;;;2.45;2.15;;;13.20;99.90;;;;;;5054735;28;20352;-80
2022/02/09 15:24:10;;;;;;;2.25;1.80;;;13.30;99.90;;;;;;5030681;28;20203;-81
2022/02/09 15:26:35;;;;;;;5.50;2.42;;;13.00;99.90;;;;;;5053815;28;20667;-79
2022/02/09 15:29:01;;;;;;;3.97;2.47;;;13.00;99.90;;;;;;5058713;28;20152;-85
2022/02/09 15:31:43;;;;;;;8.70;2.50;;;13.10;99.90;;;;;;5054243;28;20170;-87
2022/02/09 15:34:26;;;;;;;3.40;2.22;;;13.00;99.90;;;;;;5055742;28;20190;-78
2022/02/09 15:37:05;;;;;;;7.65;2.63;;;12.90;99.90;;;;;;5054025;28;20211;-78
2022/02/09 15:39:36;;;;;;;7.68;3.45;;;12.70;99.90;;;;;;5055072;28;20209;-92
2022/02/09 16:33:35;;;;;;;3.80;2.40;;;13.10;99.90;;;;;;5041358;28;20254;-85
2022/02/09 16:44:38;;;;;;;4.40;3.28;;;13.00;99.90;;;;;;5038729;28;20654;-93
2022/02/09 16:47:08;;;;;;;3.30;3.00;;;12.80;99.90;;;;;;5055977;28;20163;-91
2022/02/09 16:49:53;;;;;;;15.68;3.30;;;12.70;99.90;;;;;;5056301;28;20666;-83
2022/02/09 16:52:25;;;;;;;5.93;2.72;;;12.80;99.90;;;;;;5059525;28;20223;-88
2022/02/09 17:19:36;;;;;;;6.07;3.58;;;13.00;99.90;;;;;;5057348;28;20183;-86
2022/02/09 17:22:03;;;;;;;7.60;2.88;;;13.00;99.90;;;;;;5056336;28;20182;-87
2022/02/09 17:24:28;;;;;;;4.65;3.45;;;13.00;99.90;;;;;;5056734;28;20242;-87
2022/02/09 17:26:54;;;;;;;4.30;2.83;;;13.00;99.90;;;;;;5056213;28;20202;-78
2022/02/09 17:29:35;;;;;;;4.05;3.22;;;12.90;99.90;;;;;;5055878;28;20171;-85
2022/02/09 17:32:15;;;;;;;4.28;3.65;;;12.90;99.90;;;;;;5056696;28;20171;-81
2022/02/09 17:34:59;;;;;;;18.20;2.80;;;13.20;99.90;;;;;;5056004;28;20160;-81
2022/02/09 17:53:38;;;;;;;5.80;3.53;;;13.00;99.90;;;;;;5055208;28;20202;-86
2022/02/09 17:58:38;;;;;;;9.27;3.05;;;13.00;99.90;;;;;;5065948;28;20235;-85
2022/02/09 18:01:05;;;;;;;5.07;3.60;;;12.90;99.90;;;;;;5055149;28;20163;-91
2022/02/09 18:03:31;;;;;;;8.63;3.50;;;12.90;99.90;;;;;;5055670;28;20191;-87
2022/02/09 18:06:08;;;;;;;6.00;3.80;;;12.90;99.90;;;;;;5056704;28;20167;-86
2022/02/09 18:09:03;;;;;;;6.82;4.55;;;13.10;99.90;;;;;;5061535;28;20187;-79
2022/02/09 18:11:34;;;;;;;7.72;4.32;;;12.90;99.90;;;;;;5057558;28;20179;-91
2022/02/09 18:25:20;;;;;;;6.63;5.63;;;13.10;99.90;;;;;;5055165;28;20194;-78
2022/02/09 18:30:43;;;;;;;10.48;5.53;;;13.30;99.90;;;;;;5054931;28;20202;-94
2022/02/09 18:39:16;;;;;;;8.65;5.95;;;13.60;99.90;;;;;;5054331;28;20193;-76
2022/02/09 19:06:02;;;;;;;8.57;6.72;;;13.20;99.90;;;;;;5053742;28;20233;-80
2022/02/09 19:08:50;;;;;;;11.55;6.88;;;13.30;99.90;;;;;;5053425;28;20163;-80
2022/02/09 19:28:08;;;;;;;9.35;7.20;;;13.10;99.90;;;;;;5056201;28;20218;-79
2022/02/09 19:33:23;;;;;;;10.95;6.88;;;13.10;99.90;;;;;;5058755;28;20229;-80
2022/02/09 19:40:39;;;;;;;14.05;7.65;;;13.20;99.90;;;;;;5056200;28;20264;-93
2022/02/09 19:42:09;;;;;;;10.40;6.88;;;13.00;99.90;;;;;;5056295;28;20238;-79
2022/02/09 19:46:59;;;;;;;14.55;8.30;;;12.80;99.90;;;;;;5060641;28;20213;-94
2022/02/09 19:52:07;;;;;;;11.90;8.25;;;13.10;99.90;;;;;;5058658;28;20174;-91
2022/02/09 19:57:06;;;;;;;13.20;8.60;;;12.90;99.90;;;;;;5075862;28;20237;-78
2022/02/09 19:59:35;;;;;;;17.65;9.50;;;12.80;99.90;;;;;;5076427;28;20171;-80
2022/02/09 20:02:01;;;;;;;14.88;7.85;;;12.80;99.90;;;;;;5063411;28;20236;-89
2022/02/09 20:04:26;;;;;;;11.75;8.73;;;12.80;99.90;;;;;;5036817;28;20195;-85
2022/02/09 20:06:52;;;;;;;11.13;8.43;;;12.80;99.90;;;;;;5054731;28;20268;-86
2022/02/09 20:09:24;;;;;;;13.38;8.90;;;12.80;99.90;;;;;;5053497;28;20666;-92
2022/02/09 20:11:50;;;;;;;16.13;8.23;;;12.70;99.90;;;;;;5054322;28;20185;-82
2022/02/09 20:14:17;;;;;;;17.92;8.32;;;12.90;99.90;;;;;;5051972;28;20282;-78
2022/02/09 20:16:43;;;;;;;14.23;8.88;;;12.70;99.90;;;;;;5052072;28;20207;-78
2022/02/09 20:19:08;;;;;;;9.75;7.78;;;12.50;99.90;;;;;;5052142;28;20167;-78
2022/02/09 20:21:34;;;;;;;9.55;7.78;;;12.50;99.90;;;;;;5052195;28;20171;-78
2022/02/09 20:24:03;;;;;;;50.83;10.63;;;12.60;99.90;;;;;;5052433;28;20179;-85
2022/02/09 20:26:30;;;;;;;9.65;8.32;;;12.40;99.90;;;;;;5056785;28;20235;-87
2022/02/09 20:29:05;;;;;;;13.25;7.65;;;12.30;99.90;;;;;;5056966;28;20163;-81
2022/02/09 20:31:42;;;;;;;12.00;8.52;;;12.40;99.90;;;;;;5057012;28;20170;-78
2022/02/09 20:34:18;;;;;;;12.75;8.50;;;12.20;99.90;;;;;;5060500;28;20202;-79
2022/02/09 20:36:44;;;;;;;13.10;8.75;;;12.20;99.90;;;;;;5057043;28;20206;-79
2022/02/09 20:39:12;;;;;;;9.13;8.02;;;12.10;99.90;;;;;;5060026;28;20170;-79
2022/02/09 20:41:43;;;;;;;11.70;8.95;;;12.30;99.90;;;;;;5058496;28;20305;-78
2022/02/09 20:44:28;;;;;;;13.60;7.88;;;12.20;99.90;;;;;;5025914;28;20722;-80
2022/02/09 20:46:55;;;;;;;11.70;7.75;;;12.20;99.90;;;;;;5053586;28;20273;-77
2022/02/09 20:49:21;;;;;;;10.85;9.48;;;12.40;99.90;;;;;;5043889;28;20193;-78
2022/02/09 20:51:46;;;;;;;13.25;7.93;;;12.30;99.90;;;;;;5077055;28;20172;-78
2022/02/09 20:54:12;;;;;;;14.05;9.93;;;12.30;99.90;;;;;;5077396;28;20187;-76
2022/02/09 20:56:38;;;;;;;9.10;7.85;;;12.30;99.90;;;;;;5087337;28;20210;-78
2022/02/09 20:59:08;;;;;;;12.98;8.13;;;12.30;99.90;;;;;;5091844;28;20169;-85
2022/02/09 21:01:53;;;;;;;11.68;7.10;;;12.30;99.90;;;;;;5074756;28;20198;-77
2022/02/09 21:04:21;;;;;;;8.85;7.32;;;12.40;99.90;;;;;;5090650;28;20219;-77
2022/02/09 21:09:29;;;;;;;12.10;7.55;;;12.40;99.90;;;;;;5071335;28;20178;-79
2022/02/09 21:14:46;;;;;;;6.70;6.10;;;12.30;99.90;;;;;;5070925;28;20190;-80
2022/02/09 21:52:13;;;;;;;17.40;8.43;;;12.50;99.90;;;;;;5070348;28;20767;-85
2022/02/09 21:54:41;;;;;;;11.60;8.02;;;12.40;99.90;;;;;;5055963;28;20229;-85
2022/02/09 22:21:15;;;;;;;16.20;10.13;;;12.20;99.90;;;;;;5054694;28;20228;-79
2022/02/09 22:50:58;;;;;;;23.25;10.15;;;10.90;99.90;;;;;;5056410;28;20182;-79
2022/02/09 22:56:09;;;;;;;18.23;10.43;;;11.20;99.90;;;;;;5040831;28;20222;-83
2022/02/09 22:58:35;;;;;;;16.95;9.35;;;11.60;99.90;;;;;;5055323;28;20620;-82
2022/02/09 23:01:21;;;;;;;17.50;10.38;;;11.20;99.90;;;;;;5055664;28;20189;-77
2022/02/09 23:06:40;;;;;;;17.42;9.57;;;11.20;99.90;;;;;;5055329;28;20175;-90
2022/02/09 23:14:35;;;;;;;30.10;10.25;;;11.20;99.90;;;;;;5056063;28;20199;-79
2022/02/09 23:17:45;;;;;;;31.33;11.35;;;11.20;99.90;;;;;;5055661;28;20694;-80
2022/02/09 23:29:09;;;;;;;15.05;10.57;;;11.30;99.90;;;;;;5056436;28;20258;-85
2022/02/09 23:55:52;;;;;;;24.08;11.27;;;11.10;99.90;;;;;;5054958;28;20183;-91
